IAH weather

George Bush Intercontinental Houston Airport
Houston, Texas, United States

Public forecast

Using degrees Fahrenheit for public forecast. Weather courtesy of forecast.io.

METAR (pilot weather report)

Retrieved 2018/10/19 08:53 UTC (56 minutes ago):

KIAH 190853Z 06006KT 10SM FEW028 BKN060 BKN080 OVC150 18/16 A3015 RMK AO2 RAB10E14 SLP209 P0000 60000 T01830156 56014

TAF (pilot weather forecast)

Retrieved 2018/10/19 06:22 UTC (3 hours ago):

TAF KIAH 190520Z 1906/2012 05008KT P6SM VCSH BKN025 FM191300 07007KT P6SM -RA OVC015 FM191800 07008KT P6SM VCSH BKN025 FM192300 02007KT P6SM OVC020 FM200600 01006KT 5SM BR OVC010